Time;durP1;ratioP1;P1;durP2;ratioP2;P2;SDS_P1;SDS_P2;PMS_P1;PMS_P2;Temp;Humidity;BMP_temperature;BMP_pressure;BME280_temperature;BME280_humidity;BME280_pressure;Samples;Min_cycle;Max_cycle;Signal;HPM_P1;HPM_P2
2022/03/06 00:02:14;;;;;;;11.32;2.15;;;;;;;9.68;61.25;101695.66;5034457;28;20094;-85
2022/03/06 00:04:40;;;;;;;7.85;2.10;;;;;;;9.63;61.45;101695.00;5033540;28;20471;-85
2022/03/06 00:07:05;;;;;;;14.23;2.60;;;;;;;9.57;60.99;101688.25;5033448;28;20109;-85
2022/03/06 00:09:31;;;;;;;10.57;2.80;;;;;;;9.49;60.74;101688.56;5033208;28;20025;-85
2022/03/06 00:11:56;;;;;;;8.98;2.28;;;;;;;9.43;61.14;101695.88;5033239;28;20112;-85
2022/03/06 00:14:22;;;;;;;9.63;2.00;;;;;;;9.37;61.32;101694.34;5033045;28;20494;-85
2022/03/06 00:16:47;;;;;;;13.27;2.50;;;;;;;9.46;61.15;101693.13;5045392;28;20040;-85
2022/03/06 00:19:13;;;;;;;11.38;2.20;;;;;;;9.30;61.01;101690.28;5052877;28;20021;-85
2022/03/06 00:21:39;;;;;;;10.32;2.20;;;;;;;9.39;60.40;101676.78;5052907;28;20025;-85
2022/03/06 00:24:05;;;;;;;9.57;1.60;;;;;;;9.36;60.79;101679.56;5052992;28;20032;-85
2022/03/06 00:26:31;;;;;;;13.27;2.72;;;;;;;9.46;59.78;101686.09;5052618;28;20032;-85
2022/03/06 00:28:56;;;;;;;16.52;1.98;;;;;;;9.29;59.96;101686.81;5052705;28;20041;-85
2022/03/06 00:31:24;;;;;;;10.65;2.33;;;;;;;9.37;60.69;101689.09;5050684;28;20036;-85
2022/03/06 00:33:51;;;;;;;9.88;2.05;;;;;;;9.38;60.51;101676.84;5052352;28;20108;-85
2022/03/06 00:36:17;;;;;;;14.60;2.38;;;;;;;9.43;60.38;101688.00;5052695;28;20107;-85
2022/03/06 00:38:42;;;;;;;14.25;3.15;;;;;;;9.45;60.09;101676.53;5052521;28;20072;-85
2022/03/06 00:41:08;;;;;;;9.70;2.20;;;;;;;9.56;60.34;101685.69;5052903;28;20486;-85
2022/03/06 00:43:34;;;;;;;15.02;2.63;;;;;;;9.52;59.82;101677.97;5052541;28;20021;-85
2022/03/06 00:45:59;;;;;;;8.57;1.67;;;;;;;9.41;58.90;101682.81;5050672;28;20115;-85
2022/03/06 00:48:24;;;;;;;12.85;2.22;;;;;;;9.57;59.59;101688.25;5052420;28;20067;-85
2022/03/06 00:50:50;;;;;;;13.30;2.13;;;;;;;9.49;59.77;101685.97;5052337;28;20028;-85
2022/03/06 00:53:15;;;;;;;9.60;1.80;;;;;;;9.41;60.05;101688.06;5052203;28;20025;-85
2022/03/06 00:55:41;;;;;;;8.15;1.63;;;;;;;9.46;58.94;101680.88;5052746;28;20218;-85
2022/03/06 00:58:06;;;;;;;13.05;1.92;;;;;;;9.41;59.71;101690.69;5052620;28;20021;-84
2022/03/06 01:00:37;;;;;;;8.77;2.08;;;;;;;9.41;60.09;101689.84;5046821;28;20103;-85
2022/03/06 01:03:08;;;;;;;10.57;1.95;;;;;;;9.50;59.39;101692.06;5032239;28;20033;-85
2022/03/06 01:05:34;;;;;;;11.65;2.17;;;;;;;9.46;59.37;101691.34;5032832;28;20060;-86
2022/03/06 01:07:59;;;;;;;7.63;2.55;;;;;;;9.46;59.25;101693.97;5033483;28;20049;-85
2022/03/06 01:10:25;;;;;;;10.00;2.33;;;;;;;9.50;59.37;101679.81;5033932;28;20029;-85
2022/03/06 01:12:51;;;;;;;10.60;2.13;;;;;;;9.49;59.13;101680.72;5032801;28;20063;-85
2022/03/06 01:15:16;;;;;;;13.60;2.88;;;;;;;9.56;59.07;101688.31;5035133;28;20112;-85
2022/03/06 01:17:41;;;;;;;11.45;2.03;;;;;;;9.35;59.58;101690.94;5052699;28;20033;-85
2022/03/06 01:20:07;;;;;;;17.05;2.78;;;;;;;9.15;58.81;101688.31;5052748;28;20052;-85
2022/03/06 01:22:33;;;;;;;10.07;2.10;;;;;;;9.30;59.77;101688.53;5052977;28;20021;-85
2022/03/06 01:24:58;;;;;;;14.45;2.42;;;;;;;9.21;60.48;101688.91;5068392;28;20032;-85
2022/03/06 01:27:24;;;;;;;7.47;1.83;;;;;;;9.01;60.82;101687.09;5053071;28;20021;-85
2022/03/06 01:29:50;;;;;;;10.38;2.22;;;;;;;9.35;60.11;101690.94;5052260;28;20407;-85
2022/03/06 01:32:15;;;;;;;12.73;2.58;;;;;;;9.32;59.16;101697.19;5050510;28;20518;-85
2022/03/06 01:34:40;;;;;;;11.15;2.30;;;;;;;9.36;59.88;101692.66;5052577;28;20064;-85
2022/03/06 01:37:06;;;;;;;6.60;1.80;;;;;;;9.36;58.67;101690.03;5052499;28;20021;-85
2022/03/06 01:39:31;;;;;;;11.98;2.22;;;;;;;9.45;58.95;101697.50;5052641;28;20046;-85
2022/03/06 01:41:57;;;;;;;8.98;1.95;;;;;;;9.38;59.73;101693.44;5052789;28;20576;-85
2022/03/06 01:44:22;;;;;;;7.07;1.55;;;;;;;9.51;59.06;101688.53;5052521;28;20037;-85
2022/03/06 01:46:48;;;;;;;13.23;3.05;;;;;;;9.26;59.12;101691.31;5040885;28;20040;-85
2022/03/06 01:49:14;;;;;;;11.55;2.95;;;;;;;9.39;58.90;101689.06;5036470;28;20483;-85
2022/03/06 01:51:39;;;;;;;12.30;2.28;;;;;;;9.45;59.10;101687.00;5036422;28;20468;-85
2022/03/06 01:54:05;;;;;;;7.57;1.92;;;;;;;9.38;59.24;101684.72;5036073;28;20038;-85
2022/03/06 01:56:30;;;;;;;8.63;1.88;;;;;;;9.27;59.29;101696.50;5036351;28;20505;-85
2022/03/06 01:58:58;;;;;;;8.88;2.40;;;;;;;9.14;59.37;101695.31;5035876;28;20025;-85
2022/03/06 02:01:23;;;;;;;6.93;2.00;;;;;;;9.06;59.90;101687.78;5050669;28;20037;-85
2022/03/06 02:03:48;;;;;;;5.95;1.73;;;;;;;9.22;60.16;101695.00;5056068;28;20016;-85
2022/03/06 02:06:16;;;;;;;11.77;2.55;;;;;;;9.30;60.58;101698.13;5056070;28;20032;-85
2022/03/06 02:08:41;;;;;;;11.43;2.20;;;;;;;9.30;60.26;101703.38;5055971;28;20107;-85
2022/03/06 02:11:08;;;;;;;10.38;2.00;;;;;;;9.20;60.79;101694.19;5055634;28;20053;-85
2022/03/06 02:13:34;;;;;;;8.13;2.00;;;;;;;9.29;60.16;101686.81;5055776;28;20025;-85
2022/03/06 02:15:59;;;;;;;6.80;1.77;;;;;;;9.36;60.14;101691.78;5052877;28;20029;-85
2022/03/06 02:18:25;;;;;;;9.25;2.40;;;;;;;9.35;60.13;101700.59;5055728;28;20032;-85
2022/03/06 02:20:50;;;;;;;9.00;1.98;;;;;;;9.31;60.22;101697.22;5055489;28;20060;-85
2022/03/06 02:23:16;;;;;;;9.43;2.00;;;;;;;9.29;60.26;101696.44;5055603;28;20481;-85
2022/03/06 02:25:41;;;;;;;10.35;2.08;;;;;;;9.31;60.12;101692.84;5055696;28;20441;-85
2022/03/06 02:28:08;;;;;;;8.65;1.95;;;;;;;9.25;60.30;101694.88;5055334;28;20071;-85
2022/03/06 02:30:37;;;;;;;11.52;2.55;;;;;;;8.89;61.67;101698.94;5049158;28;20032;-84
2022/03/06 02:33:04;;;;;;;7.80;2.05;;;;;;;8.95;61.44;101697.84;5035446;28;20479;-85
2022/03/06 02:35:30;;;;;;;10.70;2.30;;;;;;;8.88;61.88;101709.47;5035267;28;20026;-85
2022/03/06 02:37:56;;;;;;;9.70;2.25;;;;;;;8.96;62.09;101703.94;5035388;28;20495;-85
2022/03/06 02:40:22;;;;;;;11.38;2.05;;;;;;;9.00;62.03;101700.25;5035252;28;20100;-85
2022/03/06 02:42:51;;;;;;;9.40;2.47;;;;;;;8.91;62.23;101701.50;5035228;28;20086;-85
2022/03/06 02:45:20;;;;;;;9.50;3.03;;;;;;;8.96;61.36;101706.53;5036121;28;20021;-85
2022/03/06 02:47:46;;;;;;;13.50;2.38;;;;;;;8.84;62.61;101705.28;5034521;28;20049;-85
2022/03/06 02:50:15;;;;;;;11.02;2.65;;;;;;;8.93;62.48;101691.81;5034991;28;20475;-85
2022/03/06 02:52:40;;;;;;;6.82;2.25;;;;;;;9.00;62.13;101690.63;5034876;28;20029;-85
2022/03/06 02:55:07;;;;;;;12.35;3.70;;;;;;;8.96;62.38;101693.44;5034827;28;20025;-85
2022/03/06 02:57:33;;;;;;;8.27;2.92;;;;;;;8.96;62.44;101689.06;5034545;28;20030;-85
2022/03/06 02:59:58;;;;;;;15.88;2.67;;;;;;;8.84;62.68;101690.41;5035335;28;20490;-85
2022/03/06 03:02:24;;;;;;;8.30;2.28;;;;;;;8.93;62.95;101687.41;5034330;28;20025;-85
2022/03/06 03:04:50;;;;;;;12.50;3.33;;;;;;;8.91;63.00;101693.66;5033189;28;20061;-85
2022/03/06 03:07:17;;;;;;;8.05;3.65;;;;;;;8.90;62.74;101687.53;5034676;28;20072;-85
2022/03/06 03:09:43;;;;;;;9.60;2.72;;;;;;;8.88;62.73;101685.91;5035297;28;20033;-85
2022/03/06 03:12:09;;;;;;;8.13;3.03;;;;;;;8.89;62.80;101682.38;5034353;28;20018;-85
2022/03/06 03:14:35;;;;;;;8.15;2.58;;;;;;;8.97;61.90;101688.16;5034580;28;20072;-85
2022/03/06 03:17:04;;;;;;;11.98;3.00;;;;;;;8.97;62.43;101684.69;5034392;28;20049;-85
2022/03/06 03:19:30;;;;;;;9.38;2.92;;;;;;;8.89;62.63;101692.84;5034284;28;20048;-85
2022/03/06 03:21:56;;;;;;;10.38;2.92;;;;;;;8.95;62.55;101681.28;5034183;28;20072;-85
2022/03/06 03:24:22;;;;;;;10.65;4.28;;;;;;;8.92;62.02;101682.22;5049045;28;20032;-85
2022/03/06 03:26:47;;;;;;;12.45;3.13;;;;;;;8.88;62.29;101696.38;5054104;28;20031;-86
2022/03/06 03:29:12;;;;;;;10.60;3.78;;;;;;;8.95;62.04;101689.97;5053955;28;20104;-84
2022/03/06 03:31:38;;;;;;;10.45;3.40;;;;;;;8.87;62.70;101697.31;5054014;28;20020;-84
2022/03/06 03:34:03;;;;;;;9.25;3.90;;;;;;;8.98;62.47;101683.75;5053893;28;20032;-84
2022/03/06 03:36:29;;;;;;;11.13;3.55;;;;;;;8.92;62.48;101695.34;5053465;28;20033;-84
2022/03/06 03:38:54;;;;;;;16.08;4.32;;;;;;;8.96;62.75;101698.69;5038654;28;20029;-84
2022/03/06 03:41:22;;;;;;;15.32;4.60;;;;;;;8.88;62.84;101693.75;5033730;28;20029;-84
2022/03/06 03:43:47;;;;;;;8.88;4.22;;;;;;;8.95;62.57;101687.38;5033807;28;20472;-84
2022/03/06 03:46:12;;;;;;;7.65;3.92;;;;;;;8.98;62.03;101694.22;5033652;28;20032;-84
2022/03/06 03:48:38;;;;;;;7.72;4.50;;;;;;;8.80;62.53;101698.44;5032534;28;20025;-85
2022/03/06 03:51:04;;;;;;;8.77;4.43;;;;;;;9.01;62.13;101701.97;5033576;28;20026;-84
2022/03/06 03:53:29;;;;;;;10.50;4.22;;;;;;;8.82;62.76;101709.72;5033271;28;20065;-84
2022/03/06 03:55:54;;;;;;;10.07;4.70;;;;;;;8.93;62.71;101712.78;5033762;28;20025;-84
2022/03/06 03:58:20;;;;;;;12.98;5.03;;;;;;;8.87;62.77;101720.88;5033649;28;20093;-86
2022/03/06 04:00:50;;;;;;;13.07;5.95;;;;;;;8.47;63.41;101730.25;5033273;28;20064;-84
2022/03/06 04:03:15;;;;;;;11.07;6.38;;;;;;;8.67;63.53;101725.13;5033561;28;20079;-84
2022/03/06 04:05:41;;;;;;;12.75;6.47;;;;;;;8.84;62.14;101734.91;5033412;28;20112;-84
2022/03/06 04:08:06;;;;;;;12.93;7.05;;;;;;;8.87;61.75;101736.59;5041027;28;20294;-84
2022/03/06 04:10:31;;;;;;;15.85;8.55;;;;;;;8.44;62.64;101733.84;5052213;28;20036;-84
2022/03/06 04:12:57;;;;;;;22.45;7.80;;;;;;;8.45;62.06;101724.22;5053224;28;20032;-84
2022/03/06 04:15:23;;;;;;;21.73;8.40;;;;;;;8.38;62.35;101738.44;5052031;28;20287;-84
2022/03/06 04:17:48;;;;;;;15.25;8.32;;;;;;;8.34;62.51;101728.06;5054554;28;20021;-84
2022/03/06 04:20:13;;;;;;;19.52;9.15;;;;;;;8.27;63.20;101731.84;5055310;28;20029;-84
2022/03/06 04:22:39;;;;;;;15.98;8.18;;;;;;;8.48;62.49;101742.44;5054033;28;20081;-84
2022/03/06 04:25:04;;;;;;;15.40;8.48;;;;;;;8.06;63.47;101738.72;5052059;28;20390;-84
2022/03/06 04:27:30;;;;;;;18.63;8.65;;;;;;;8.28;62.82;101738.78;5052866;28;20032;-84
2022/03/06 04:29:56;;;;;;;16.33;8.60;;;;;;;8.13;63.10;101739.34;5053001;28;20083;-84
2022/03/06 04:32:22;;;;;;;14.68;9.02;;;;;;;8.37;62.81;101742.81;5052868;28;20234;-84
2022/03/06 04:34:48;;;;;;;19.25;9.13;;;;;;;8.30;61.91;101746.56;5052837;28;20061;-84
2022/03/06 04:37:13;;;;;;;18.00;9.18;;;;;;;8.35;62.75;101749.84;5052714;28;20053;-85
2022/03/06 04:39:38;;;;;;;21.80;9.93;;;;;;;8.50;61.81;101751.09;5032418;28;20117;-85
2022/03/06 04:42:04;;;;;;;20.48;8.30;;;;;;;8.54;62.56;101750.06;5033094;28;20472;-85
2022/03/06 04:44:29;;;;;;;15.02;7.60;;;;;;;8.17;61.97;101747.94;5033203;28;20389;-85
2022/03/06 04:46:55;;;;;;;16.48;7.43;;;;;;;8.13;61.39;101757.66;5033258;28;20037;-85
2022/03/06 04:49:20;;;;;;;13.13;7.00;;;;;;;8.26;60.74;101745.84;5031899;28;20040;-85
2022/03/06 04:51:45;;;;;;;12.48;7.10;;;;;;;8.25;61.72;101758.97;5032826;28;20049;-85
2022/03/06 04:54:11;;;;;;;13.30;6.28;;;;;;;8.16;61.23;101760.16;5047927;28;20029;-85
2022/03/06 04:56:36;;;;;;;10.43;6.03;;;;;;;7.91;61.38;101766.25;5053459;28;20017;-85
2022/03/06 04:59:02;;;;;;;12.43;6.50;;;;;;;8.08;60.19;101764.81;5053435;28;20050;-85
2022/03/06 05:01:28;;;;;;;12.15;5.15;;;;;;;8.11;60.24;101759.47;5053348;28;20025;-85
2022/03/06 05:03:53;;;;;;;16.20;6.70;;;;;;;7.90;60.04;101763.72;5052618;28;20364;-85
2022/03/06 05:06:18;;;;;;;10.63;4.82;;;;;;;7.79;59.94;101758.84;5054615;28;20020;-86
2022/03/06 05:08:44;;;;;;;9.38;4.68;;;;;;;7.87;59.50;101764.66;5050639;28;20110;-85
2022/03/06 05:11:10;;;;;;;7.22;4.55;;;;;;;8.01;59.19;101761.56;5052827;28;20080;-86
2022/03/06 05:13:36;;;;;;;10.00;4.43;;;;;;;7.93;59.47;101764.44;5052602;28;20112;-86
2022/03/06 05:16:01;;;;;;;8.13;4.78;;;;;;;8.18;59.29;101766.19;5052331;28;20378;-85
2022/03/06 05:18:26;;;;;;;10.02;5.38;;;;;;;8.05;58.91;101762.31;5050868;28;20427;-86
2022/03/06 05:20:52;;;;;;;9.10;5.00;;;;;;;8.09;59.19;101769.13;5051491;28;20063;-87
2022/03/06 05:23:17;;;;;;;9.55;5.55;;;;;;;7.97;58.99;101775.66;5050424;28;20037;-85
2022/03/06 05:25:44;;;;;;;15.18;8.18;;;;;;;8.11;58.78;101776.00;5052151;28;20021;-85
2022/03/06 05:28:10;;;;;;;13.70;6.07;;;;;;;8.18;59.00;101771.44;5051737;28;20429;-86
2022/03/06 05:30:35;;;;;;;10.75;6.25;;;;;;;8.21;59.26;101773.91;5051954;28;20392;-86
2022/03/06 05:33:01;;;;;;;16.20;6.10;;;;;;;8.27;59.52;101767.59;5052182;28;20025;-86
2022/03/06 05:35:26;;;;;;;9.88;5.97;;;;;;;8.32;59.60;101771.78;5050650;28;20025;-85
2022/03/06 05:37:52;;;;;;;10.02;6.10;;;;;;;8.22;59.16;101788.72;5045594;28;20040;-85
2022/03/06 05:40:17;;;;;;;14.80;6.65;;;;;;;8.20;60.26;101771.38;5032137;28;20442;-86
2022/03/06 05:42:42;;;;;;;10.63;5.88;;;;;;;8.28;59.66;101779.78;5032220;28;20049;-85
2022/03/06 05:45:08;;;;;;;14.55;7.18;;;;;;;8.41;60.05;101786.34;5032259;28;20022;-86
2022/03/06 05:47:33;;;;;;;12.77;6.35;;;;;;;8.26;60.25;101787.69;5032278;28;20029;-86
2022/03/06 05:49:59;;;;;;;9.75;5.32;;;;;;;8.36;59.58;101779.53;5032261;28;20036;-85
2022/03/06 05:52:24;;;;;;;12.07;6.05;;;;;;;8.42;59.51;101784.56;5033205;28;20072;-86
2022/03/06 05:54:50;;;;;;;11.18;6.18;;;;;;;8.31;59.39;101788.41;5031846;28;20395;-85
2022/03/06 05:57:15;;;;;;;12.55;7.20;;;;;;;8.16;60.39;101798.56;5032549;28;20026;-86
2022/03/06 05:59:41;;;;;;;11.38;6.05;;;;;;;8.01;60.03;101797.31;5032390;28;20030;-84
2022/03/06 06:02:06;;;;;;;10.30;5.50;;;;;;;8.14;60.07;101796.00;5033144;28;20101;-84
2022/03/06 06:04:31;;;;;;;14.15;6.05;;;;;;;8.18;59.76;101801.97;5031471;28;20033;-84
2022/03/06 06:06:57;;;;;;;10.45;5.72;;;;;;;8.26;59.51;101800.78;5031631;28;20479;-84
2022/03/06 06:09:22;;;;;;;11.02;5.70;;;;;;;8.30;59.78;101807.59;5031599;28;20306;-84
2022/03/06 06:11:47;;;;;;;16.23;5.90;;;;;;;8.38;59.18;101799.47;5031659;28;20040;-84
2022/03/06 06:14:13;;;;;;;9.63;5.55;;;;;;;8.36;59.12;101810.94;5031601;28;20030;-84
2022/03/06 06:16:38;;;;;;;9.43;5.95;;;;;;;8.34;58.00;101809.19;5031376;28;20423;-86
2022/03/06 06:19:04;;;;;;;10.38;4.88;;;;;;;8.28;58.68;101817.28;5032360;28;20425;-84
2022/03/06 06:21:29;;;;;;;10.43;5.13;;;;;;;8.26;58.60;101821.72;5031645;28;20021;-84
2022/03/06 06:23:55;;;;;;;11.82;4.95;;;;;;;8.48;58.28;101820.97;5031503;28;20071;-84
2022/03/06 06:26:20;;;;;;;11.50;5.05;;;;;;;8.39;57.79;101826.50;5031540;28;20030;-84
2022/03/06 06:28:48;;;;;;;9.63;4.78;;;;;;;8.43;58.31;101835.97;5031117;28;20052;-85
2022/03/06 06:31:13;;;;;;;9.15;4.65;;;;;;;8.43;58.14;101829.00;5032920;28;20018;-84
2022/03/06 06:33:38;;;;;;;7.00;4.55;;;;;;;8.52;57.94;101828.66;5046619;28;20037;-85
2022/03/06 06:36:04;;;;;;;8.65;4.25;;;;;;;8.57;57.57;101828.50;5054957;28;20031;-85
2022/03/06 06:38:29;;;;;;;9.80;5.50;;;;;;;8.55;58.27;101825.09;5054786;28;20025;-84
2022/03/06 06:40:55;;;;;;;11.23;5.63;;;;;;;8.17;58.25;101823.81;5054991;28;20079;-85
2022/03/06 06:43:21;;;;;;;9.57;5.00;;;;;;;8.46;58.20;101830.66;5054999;28;20025;-85
2022/03/06 06:45:47;;;;;;;9.55;5.32;;;;;;;8.53;57.35;101827.75;5054850;28;20071;-85
2022/03/06 06:48:12;;;;;;;10.50;5.32;;;;;;;8.51;57.81;101833.94;5052894;28;20044;-84
2022/03/06 06:50:38;;;;;;;9.25;5.07;;;;;;;8.52;57.75;101836.50;5054542;28;20417;-84
2022/03/06 06:53:03;;;;;;;13.88;5.53;;;;;;;8.48;57.48;101840.16;5054525;28;20120;-84
2022/03/06 06:55:29;;;;;;;11.52;5.30;;;;;;;8.44;58.15;101837.69;5053429;28;20092;-84
2022/03/06 06:57:54;;;;;;;8.30;4.93;;;;;;;8.37;58.76;101841.41;5054748;28;20060;-85
2022/03/06 07:00:20;;;;;;;12.50;5.20;;;;;;;8.54;58.42;101837.31;5051619;28;20598;-84
2022/03/06 07:02:46;;;;;;;13.55;5.75;;;;;;;8.44;58.00;101838.56;5041272;28;20431;-83
2022/03/06 07:05:12;;;;;;;15.18;5.45;;;;;;;8.44;58.34;101848.19;5034459;28;20029;-84
2022/03/06 07:07:37;;;;;;;11.48;5.07;;;;;;;8.43;57.88;101838.59;5054201;28;20032;-84
2022/03/06 07:10:04;;;;;;;10.35;5.20;;;;;;;8.56;58.59;101845.09;5054095;28;20036;-83
2022/03/06 07:12:29;;;;;;;11.32;5.65;;;;;;;8.60;58.31;101848.47;5053621;28;20025;-83
2022/03/06 07:14:55;;;;;;;17.58;6.78;;;;;;;8.34;59.00;101843.22;5053970;28;20048;-83
2022/03/06 07:17:20;;;;;;;11.25;5.53;;;;;;;8.44;58.34;101848.19;5053977;28;20406;-83
2022/03/06 07:19:45;;;;;;;12.05;5.65;;;;;;;8.46;58.76;101847.19;5054002;28;20163;-83
2022/03/06 07:22:11;;;;;;;10.73;5.63;;;;;;;8.53;58.75;101863.53;5054372;28;20028;-84
2022/03/06 07:24:37;;;;;;;8.15;4.88;;;;;;;8.69;57.63;101854.22;5054330;28;20506;-84
2022/03/06 07:27:02;;;;;;;10.27;4.70;;;;;;;8.76;58.09;101856.63;5052700;28;20471;-84
2022/03/06 07:29:27;;;;;;;13.13;5.72;;;;;;;8.67;58.42;101865.69;5053413;28;20024;-83
2022/03/06 07:31:53;;;;;;;10.63;4.72;;;;;;;8.60;58.11;101857.16;5052376;28;20592;-84
2022/03/06 07:34:18;;;;;;;8.38;5.90;;;;;;;8.53;58.75;101863.53;5055698;28;20549;-84
2022/03/06 07:36:43;;;;;;;9.65;5.47;;;;;;;8.58;58.54;101859.00;5052495;28;20486;-83
2022/03/06 07:39:09;;;;;;;11.00;5.30;;;;;;;8.60;58.42;101865.03;5052352;28;20031;-84
2022/03/06 07:41:34;;;;;;;13.60;5.57;;;;;;;8.65;58.26;101867.47;5052368;28;20029;-84
2022/03/06 07:44:00;;;;;;;9.57;4.80;;;;;;;8.65;57.94;101870.97;5051127;28;20052;-84
2022/03/06 07:46:25;;;;;;;10.48;4.85;;;;;;;8.81;58.53;101880.88;5049228;28;20020;-84
2022/03/06 07:48:50;;;;;;;9.27;4.35;;;;;;;8.73;58.19;101879.38;5051947;28;20029;-84
2022/03/06 07:51:16;;;;;;;12.43;4.90;;;;;;;8.78;58.93;101888.84;5050507;28;20029;-84
2022/03/06 07:53:42;;;;;;;8.23;4.50;;;;;;;8.91;58.10;101884.88;5053627;28;20033;-85
2022/03/06 07:56:07;;;;;;;13.15;5.57;;;;;;;8.94;58.74;101892.59;5053385;28;20025;-84
2022/03/06 07:58:32;;;;;;;15.38;5.90;;;;;;;8.88;57.43;101890.19;5053308;28;20016;-85
2022/03/06 08:00:58;;;;;;;13.05;6.10;;;;;;;8.98;57.96;101901.19;5050536;28;20025;-85
2022/03/06 08:03:23;;;;;;;6.97;4.75;;;;;;;9.00;57.31;101902.84;5053244;28;20028;-84
2022/03/06 08:05:48;;;;;;;10.15;5.28;;;;;;;8.86;57.50;101902.50;5053371;28;20043;-85
2022/03/06 08:08:14;;;;;;;11.05;6.20;;;;;;;8.89;57.38;101908.47;5053201;28;20036;-84
2022/03/06 08:10:39;;;;;;;12.30;5.47;;;;;;;8.81;57.93;101913.16;5051364;28;20021;-85
2022/03/06 08:13:04;;;;;;;13.07;6.20;;;;;;;8.91;56.98;101908.44;5052999;28;20025;-85
2022/03/06 08:15:30;;;;;;;9.73;4.80;;;;;;;8.98;57.12;101917.75;5052976;28;20021;-84
2022/03/06 08:17:55;;;;;;;12.85;5.30;;;;;;;8.69;57.16;101911.84;5051816;28;20021;-85
2022/03/06 08:20:20;;;;;;;8.93;4.38;;;;;;;8.91;56.97;101917.13;5053086;28;20029;-85
2022/03/06 08:22:46;;;;;;;10.43;5.38;;;;;;;8.77;57.69;101913.31;5051586;28;20075;-84
2022/03/06 08:25:11;;;;;;;12.77;5.68;;;;;;;8.90;57.25;101922.44;5051187;28;20032;-85
2022/03/06 08:27:37;;;;;;;11.30;4.70;;;;;;;9.03;57.30;101926.31;5050973;28;20085;-84
2022/03/06 08:30:05;;;;;;;10.73;4.97;;;;;;;8.98;56.77;101916.91;5052754;28;20037;-84
2022/03/06 08:32:31;;;;;;;11.05;5.25;;;;;;;8.99;56.03;101921.25;5052736;28;20021;-85
2022/03/06 08:34:57;;;;;;;10.70;5.85;;;;;;;9.00;56.60;101902.00;5052862;28;20029;-84
2022/03/06 08:37:22;;;;;;;9.27;5.18;;;;;;;9.00;56.58;101915.94;5053293;28;20399;-84
2022/03/06 08:39:48;;;;;;;14.10;5.53;;;;;;;9.05;56.85;101923.66;5052826;28;20057;-84
2022/03/06 08:42:14;;;;;;;14.93;5.10;;;;;;;9.06;56.05;101927.97;5047849;28;20131;-84
2022/03/06 08:44:40;;;;;;;12.25;4.95;;;;;;;9.20;56.25;101937.91;5034970;28;20104;-84
2022/03/06 08:47:05;;;;;;;8.85;4.03;;;;;;;9.37;55.99;101926.81;5033391;28;20052;-84
2022/03/06 08:49:31;;;;;;;8.65;4.85;;;;;;;9.46;56.33;101929.94;5033284;28;20022;-84
2022/03/06 08:51:57;;;;;;;7.78;4.47;;;;;;;9.38;55.95;101932.00;5037877;28;20186;-84
2022/03/06 08:54:23;;;;;;;10.85;5.10;;;;;;;9.38;56.31;101923.25;5054148;28;20032;-84
2022/03/06 08:56:48;;;;;;;11.85;4.53;;;;;;;9.60;55.98;101933.78;5052774;28;20112;-84
2022/03/06 08:59:14;;;;;;;9.98;5.18;;;;;;;9.49;56.01;101935.03;5052467;28;20029;-84
2022/03/06 09:01:39;;;;;;;10.57;4.70;;;;;;;9.54;56.88;101932.25;5052407;28;20059;-84
2022/03/06 09:04:05;;;;;;;8.02;4.35;;;;;;;9.43;55.66;101939.69;5052434;28;20024;-84
2022/03/06 09:06:30;;;;;;;15.65;5.03;;;;;;;9.65;55.78;101923.94;5052398;28;20103;-84
2022/03/06 09:08:56;;;;;;;12.05;5.03;;;;;;;9.79;55.79;101926.03;5051245;28;20075;-84
2022/03/06 09:11:21;;;;;;;18.08;4.90;;;;;;;9.67;55.76;101929.97;5052376;28;20398;-84
2022/03/06 09:13:46;;;;;;;11.95;5.13;;;;;;;9.97;55.88;101934.91;5052410;28;20032;-84
2022/03/06 09:16:12;;;;;;;15.55;5.10;;;;;;;10.10;54.97;101936.97;5051960;28;20029;-85
2022/03/06 09:18:37;;;;;;;8.90;4.70;;;;;;;10.15;55.34;101936.78;5052004;28;20108;-84
2022/03/06 09:21:03;;;;;;;9.57;4.78;;;;;;;10.38;55.09;101935.84;5052084;28;20017;-84
2022/03/06 09:23:28;;;;;;;9.38;4.57;;;;;;;10.52;54.89;101935.25;5048916;28;20036;-83
2022/03/06 09:25:53;;;;;;;9.18;5.63;;;;;;;10.46;54.26;101931.09;5051831;28;20455;-83
2022/03/06 09:28:19;;;;;;;14.52;5.18;;;;;;;10.18;54.48;101938.44;5052352;28;20036;-83
2022/03/06 09:30:44;;;;;;;9.63;4.47;;;;;;;10.34;53.92;101949.16;5050005;28;20024;-83
2022/03/06 09:33:10;;;;;;;6.95;4.22;;;;;;;10.08;55.02;101940.59;5048892;28;20082;-83
2022/03/06 09:35:35;;;;;;;11.48;4.25;;;;;;;10.20;54.91;101936.59;5051712;28;20091;-83
2022/03/06 09:38:01;;;;;;;11.07;4.13;;;;;;;10.34;55.08;101941.28;5050613;28;20379;-83
2022/03/06 09:40:27;;;;;;;10.63;4.25;;;;;;;10.36;54.73;101937.69;5048841;28;20025;-83
2022/03/06 09:42:52;;;;;;;13.40;4.78;;;;;;;10.22;55.20;101940.00;5034899;28;20036;-83
2022/03/06 09:45:20;;;;;;;12.32;4.85;;;;;;;10.11;54.98;101930.81;5050369;28;20070;-82
2022/03/06 09:47:46;;;;;;;7.50;4.20;;;;;;;9.98;54.91;101934.84;5051436;28;20025;-82
2022/03/06 09:50:13;;;;;;;9.65;4.15;;;;;;;9.86;54.89;101937.97;5051448;28;20024;-82
2022/03/06 09:52:39;;;;;;;9.20;4.10;;;;;;;10.03;54.86;101932.03;5051679;28;20100;-82
2022/03/06 09:55:06;;;;;;;13.32;5.18;;;;;;;9.87;55.34;101924.81;5049007;28;20112;-83
2022/03/06 09:57:31;;;;;;;9.88;4.40;;;;;;;10.20;54.78;101933.97;5051075;28;20091;-83
2022/03/06 09:59:57;;;;;;;7.57;4.45;;;;;;;10.02;55.33;101925.09;5051055;28;20025;-83
2022/03/06 10:02:22;;;;;;;10.05;4.88;;;;;;;10.02;55.48;101927.72;5051081;28;20021;-82
2022/03/06 10:04:48;;;;;;;9.52;4.13;;;;;;;10.17;55.63;101934.97;5051034;28;20025;-83
2022/03/06 10:07:15;;;;;;;10.43;4.32;;;;;;;10.25;55.42;101932.00;5047122;28;20112;-84
2022/03/06 10:09:47;;;;;;;12.43;4.45;;;;;;;10.23;55.11;101942.56;5053269;28;20425;-83
2022/03/06 10:12:26;;;;;;;14.35;4.25;;;;;;;10.05;55.07;101931.06;5056894;28;20029;-84
2022/03/06 10:14:54;;;;;;;11.00;4.75;;;;;;;10.01;55.56;101926.88;5049905;28;20056;-84
2022/03/06 10:17:25;;;;;;;10.85;4.63;;;;;;;10.32;55.65;101936.94;5053060;28;20029;-84
2022/03/06 10:20:10;;;;;;;10.43;4.78;;;;;;;10.19;55.70;101933.13;5050192;28;20032;-84
2022/03/06 10:22:37;;;;;;;10.65;4.10;;;;;;;10.83;54.91;101916.34;5053346;28;20402;-84
2022/03/06 10:25:08;;;;;;;12.13;4.40;;;;;;;11.11;54.57;101918.56;5043418;28;20116;-84
2022/03/06 10:27:47;;;;;;;9.33;4.20;;;;;;;11.60;53.31;101918.06;5042369;28;20025;-85
2022/03/06 10:30:35;;;;;;;12.02;4.90;;;;;;;12.11;52.37;101912.97;5044871;28;20424;-84
2022/03/06 10:33:10;;;;;;;10.75;4.18;;;;;;;13.02;50.60;101917.00;5053489;28;20111;-84
2022/03/06 10:35:41;;;;;;;12.88;4.57;;;;;;;14.34;47.73;101915.75;5045676;28;20135;-84
2022/03/06 10:38:27;;;;;;;10.23;3.70;;;;;;;15.21;45.24;101906.91;5054314;28;20017;-84
2022/03/06 10:40:56;;;;;;;10.57;4.13;;;;;;;15.58;43.84;101897.44;5046107;28;20048;-85
2022/03/06 10:43:27;;;;;;;8.60;4.35;;;;;;;16.30;42.09;101891.78;5048367;28;20040;-84
2022/03/06 10:46:16;;;;;;;7.28;3.55;;;;;;;16.40;40.90;101886.69;5048895;28;20422;-84
2022/03/06 10:48:56;;;;;;;9.40;3.70;;;;;;;17.02;39.71;101894.72;5070002;28;20040;-84
2022/03/06 10:51:22;;;;;;;9.43;3.80;;;;;;;17.47;38.41;101904.75;5054501;28;20020;-85
2022/03/06 10:53:54;;;;;;;10.63;3.58;;;;;;;16.59;39.47;101899.53;5052799;28;20036;-85
2022/03/06 10:56:20;;;;;;;13.50;3.13;;;;;;;15.55;40.70;101902.06;5051465;28;20028;-84
2022/03/06 10:58:47;;;;;;;7.93;3.72;;;;;;;14.87;41.92;101911.66;5054194;28;20037;-84
2022/03/06 11:01:13;;;;;;;7.63;3.35;;;;;;;14.50;42.46;101910.41;5040078;28;20048;-84
2022/03/06 11:03:40;;;;;;;5.93;3.15;;;;;;;13.94;43.19;101911.03;5051435;28;20091;-85
2022/03/06 11:06:08;;;;;;;6.20;3.60;;;;;;;13.45;44.75;101912.03;5054113;28;20493;-86
2022/03/06 11:08:34;;;;;;;8.23;3.53;;;;;;;12.33;44.73;101911.88;5053532;28;20275;-84
2022/03/06 11:11:00;;;;;;;5.97;3.05;;;;;;;12.20;46.36;101907.22;5053417;28;20028;-85
2022/03/06 11:13:29;;;;;;;7.68;3.53;;;;;;;12.26;46.09;101901.66;5054168;28;20394;-85
2022/03/06 11:15:56;;;;;;;10.15;4.38;;;;;;;12.31;46.58;101904.06;5053019;28;20082;-84
2022/03/06 11:18:24;;;;;;;7.57;3.35;;;;;;;11.97;46.96;101904.94;5052569;28;20075;-84
2022/03/06 11:20:51;;;;;;;9.32;3.22;;;;;;;11.21;48.23;101900.59;5053032;28;20068;-84
2022/03/06 11:23:21;;;;;;;7.72;3.80;;;;;;;11.39;48.77;101904.13;5050345;28;20025;-84